Time;durP1;ratioP1;P1;durP2;ratioP2;P2;SDS_P1;SDS_P2;PMS_P1;PMS_P2;Temp;Humidity;BMP_temperature;BMP_pressure;BME280_temperature;BME280_humidity;BME280_pressure;Samples;Min_cycle;Max_cycle;Signal;HPM_P1;HPM_P2
2021/12/02 00:03:14;;;;;;;1.50;1.40;;;;;7.30;94362.00;;;;8314011;28;20360;-69
2021/12/02 00:07:18;;;;;;;1.30;1.30;;;;;7.30;94359.00;;;;8314087;28;20229;-68
2021/12/02 00:11:23;;;;;;;2.20;1.40;;;;;7.30;94365.00;;;;8313654;28;20229;-68
2021/12/02 00:15:32;;;;;;;1.63;1.50;;;;;7.30;94369.00;;;;8321846;28;20556;-68
2021/12/02 00:24:10;;;;;;;1.50;1.40;;;;;7.40;94376.00;;;;8177562;28;20223;-68
2021/12/02 00:28:18;;;;;;;1.20;1.10;;;;;7.40;94383.00;;;;8254468;28;20706;-68
2021/12/02 00:32:21;;;;;;;1.10;1.10;;;;;7.40;94397.00;;;;8318223;28;20260;-68
2021/12/02 00:36:27;;;;;;;1.37;1.10;;;;;7.30;94400.00;;;;8320254;28;20668;-68
2021/12/02 00:40:32;;;;;;;2.33;1.20;;;;;7.20;94410.00;;;;8317493;28;20244;-69
2021/12/02 00:44:37;;;;;;;1.00;1.00;;;;;7.20;94406.00;;;;8328132;28;20256;-70
2021/12/02 00:48:42;;;;;;;0.97;0.97;;;;;7.10;94404.00;;;;8325795;28;20228;-69
2021/12/02 00:52:47;;;;;;;0.90;0.90;;;;;7.10;94402.00;;;;8316504;28;20296;-69
2021/12/02 00:56:50;;;;;;;1.10;1.10;;;;;7.00;94414.00;;;;8316479;28;20252;-69
2021/12/02 01:00:56;;;;;;;1.10;1.10;;;;;6.90;94425.00;;;;8321552;28;20619;-70
2021/12/02 01:05:00;;;;;;;1.00;1.00;;;;;6.80;94418.00;;;;8320681;28;20291;-69
2021/12/02 01:09:05;;;;;;;2.53;0.90;;;;;6.80;94438.00;;;;8323835;28;20295;-69
2021/12/02 01:13:09;;;;;;;1.20;1.10;;;;;6.80;94442.00;;;;8323594;28;20221;-70
2021/12/02 01:17:13;;;;;;;1.13;1.03;;;;;6.80;94441.00;;;;8327840;28;20253;-69
2021/12/02 01:21:20;;;;;;;1.10;1.10;;;;;6.80;94435.00;;;;8324526;28;20248;-69
2021/12/02 01:25:23;;;;;;;1.10;1.10;;;;;6.80;94450.00;;;;8319355;28;20705;-69
2021/12/02 01:29:27;;;;;;;1.30;1.20;;;;;6.80;94455.00;;;;8321615;28;20381;-69
2021/12/02 01:33:34;;;;;;;1.10;1.10;;;;;6.80;94446.00;;;;8319322;28;20249;-69
2021/12/02 01:37:37;;;;;;;1.00;1.00;;;;;6.60;94442.00;;;;8320965;28;20233;-69
2021/12/02 01:41:46;;;;;;;1.00;1.00;;;;;6.50;94447.00;;;;8322305;28;20275;-69
2021/12/02 01:45:49;;;;;;;1.43;1.20;;;;;6.40;94450.00;;;;8315856;28;20233;-69
2021/12/02 01:49:58;;;;;;;2.63;1.43;;;;;6.30;94443.00;;;;8322534;28;20856;-69
2021/12/02 01:54:06;;;;;;;1.10;1.10;;;;;6.30;94450.00;;;;8321710;28;20320;-69
2021/12/02 01:58:16;;;;;;;1.33;1.27;;;;;6.20;94451.00;;;;8318036;28;20279;-69
2021/12/02 02:02:21;;;;;;;1.20;1.20;;;;;6.20;94450.00;;;;8329784;28;20691;-69
2021/12/02 02:06:29;;;;;;;4.43;1.40;;;;;6.10;94457.00;;;;8317962;28;20221;-68
2021/12/02 02:10:36;;;;;;;1.77;1.67;;;;;6.10;94452.00;;;;8318753;28;20225;-68
2021/12/02 02:14:40;;;;;;;4.20;1.40;;;;;6.00;94447.00;;;;8317641;28;20225;-69
2021/12/02 02:18:43;;;;;;;1.30;1.20;;;;;6.00;94444.00;;;;8316727;28;20255;-69
2021/12/02 02:22:48;;;;;;;4.83;1.30;;;;;6.00;94449.00;;;;8317891;28;20229;-68
2021/12/02 02:26:51;;;;;;;3.20;1.33;;;;;5.90;94448.00;;;;8319727;28;20265;-68
2021/12/02 02:30:54;;;;;;;1.40;1.30;;;;;5.80;94449.00;;;;8314354;28;20316;-68
2021/12/02 02:34:58;;;;;;;1.30;1.30;;;;;5.80;94450.00;;;;8318641;28;20929;-68
2021/12/02 02:39:03;;;;;;;4.07;1.33;;;;;5.70;94450.00;;;;8316384;28;20241;-69
2021/12/02 02:43:07;;;;;;;1.70;1.40;;;;;5.70;94453.00;;;;8320372;28;20255;-68
2021/12/02 02:47:10;;;;;;;1.10;1.10;;;;;5.70;94457.00;;;;8321078;28;20244;-69
2021/12/02 02:51:13;;;;;;;2.70;1.50;;;;;5.80;94456.00;;;;8315222;28;20253;-69
2021/12/02 02:55:23;;;;;;;1.50;1.50;;;;;5.80;94449.00;;;;8315221;28;20319;-68
2021/12/02 02:59:35;;;;;;;3.17;1.60;;;;;5.80;94454.00;;;;8316040;28;20228;-68
2021/12/02 03:03:44;;;;;;;2.70;1.33;;;;;5.80;94458.00;;;;8363877;22;20319;-68
2021/12/02 03:07:52;;;;;;;1.90;1.80;;;;;5.90;94460.00;;;;8339835;28;20323;-68
2021/12/02 03:11:58;;;;;;;2.57;1.80;;;;;5.90;94466.00;;;;8345472;28;20224;-68
2021/12/02 03:20:22;;;;;;;4.00;1.70;;;;;6.00;94458.00;;;;8332013;28;20229;-69
2021/12/02 03:24:26;;;;;;;1.80;1.70;;;;;6.00;94457.00;;;;8342062;28;20218;-69
2021/12/02 03:28:30;;;;;;;4.43;1.90;;;;;6.10;94461.00;;;;8327764;28;20314;-69
2021/12/02 03:32:34;;;;;;;8.97;1.87;;;;;6.00;94461.00;;;;8342312;28;20594;-68
2021/12/02 03:36:38;;;;;;;3.60;1.83;;;;;6.10;94460.00;;;;8322911;28;20247;-68
2021/12/02 03:40:41;;;;;;;2.20;1.63;;;;;6.00;94463.00;;;;8334744;28;20258;-68
2021/12/02 03:44:46;;;;;;;4.63;2.00;;;;;6.00;94462.00;;;;8337812;28;20252;-68
2021/12/02 03:48:51;;;;;;;3.10;1.73;;;;;5.90;94464.00;;;;8337582;28;20327;-69
2021/12/02 03:52:54;;;;;;;3.20;2.07;;;;;5.90;94473.00;;;;8333214;28;20251;-68
2021/12/02 03:56:57;;;;;;;1.83;1.70;;;;;5.80;94467.00;;;;8334599;28;20247;-68
2021/12/02 04:01:02;;;;;;;6.87;2.47;;;;;5.70;94469.00;;;;8330017;28;20255;-69
2021/12/02 04:05:05;;;;;;;3.90;1.80;;;;;5.60;94475.00;;;;8338893;28;20227;-68
2021/12/02 04:09:13;;;;;;;2.17;1.70;;;;;5.50;94472.00;;;;8345316;28;20311;-69
2021/12/02 04:13:20;;;;;;;5.77;1.90;;;;;5.40;94462.00;;;;8335494;28;20251;-69
2021/12/02 04:17:40;;;;;;;3.13;1.97;;;;;5.40;94457.00;;;;8337176;28;20739;-69
2021/12/02 04:21:43;;;;;;;2.23;2.00;;;;;5.30;94458.00;;;;8328356;28;20300;-68
2021/12/02 04:25:47;;;;;;;3.63;1.87;;;;;5.20;94462.00;;;;8329937;28;20312;-68
2021/12/02 04:29:50;;;;;;;6.07;2.03;;;;;5.10;94462.00;;;;8331875;28;20248;-68
2021/12/02 04:33:55;;;;;;;2.60;1.93;;;;;5.00;94461.00;;;;8342547;28;20262;-69
2021/12/02 04:37:58;;;;;;;1.90;1.80;;;;;5.00;94444.00;;;;8340974;28;20258;-68
2021/12/02 04:42:01;;;;;;;2.80;2.00;;;;;5.00;94455.00;;;;8340493;28;20323;-68
2021/12/02 04:46:06;;;;;;;3.23;1.90;;;;;5.00;94467.00;;;;8340086;28;20271;-68
2021/12/02 04:50:12;;;;;;;3.33;1.67;;;;;5.00;94464.00;;;;8338601;28;20236;-68
2021/12/02 04:54:15;;;;;;;7.40;1.97;;;;;5.20;94480.00;;;;8333811;28;20228;-69
2021/12/02 04:58:19;;;;;;;2.77;1.60;;;;;5.30;94478.00;;;;8334863;28;20265;-69
2021/12/02 05:02:22;;;;;;;3.37;2.13;;;;;5.40;94487.00;;;;8344378;28;20662;-68
2021/12/02 05:06:27;;;;;;;2.43;1.50;;;;;5.50;94484.00;;;;8336349;28;20289;-69
2021/12/02 05:10:31;;;;;;;3.60;1.90;;;;;5.60;94486.00;;;;8336943;28;20270;-69
2021/12/02 05:14:34;;;;;;;6.00;1.90;;;;;5.70;94485.00;;;;8339731;28;20239;-68
2021/12/02 05:18:39;;;;;;;2.37;1.80;;;;;5.80;94496.00;;;;8329602;28;20313;-68
2021/12/02 05:22:43;;;;;;;6.40;1.93;;;;;5.80;94504.00;;;;8337970;28;20269;-68
2021/12/02 05:26:47;;;;;;;3.77;2.00;;;;;5.90;94505.00;;;;8333910;28;20872;-68
2021/12/02 05:30:54;;;;;;;1.90;1.80;;;;;5.90;94499.00;;;;8336140;28;20279;-68
2021/12/02 05:34:58;;;;;;;7.60;2.00;;;;;5.90;94498.00;;;;8335308;28;26269;-68
2021/12/02 05:39:02;;;;;;;2.23;2.00;;;;;5.70;94508.00;;;;8340863;28;20243;-68
2021/12/02 05:43:06;;;;;;;6.20;2.67;;;;;5.70;94497.00;;;;8340513;28;20310;-68
2021/12/02 05:47:09;;;;;;;6.57;2.20;;;;;5.60;94493.00;;;;8342225;28;20263;-68
2021/12/02 05:51:12;;;;;;;4.23;2.30;;;;;5.60;94500.00;;;;8346661;28;20318;-68
2021/12/02 05:55:17;;;;;;;6.90;2.30;;;;;5.60;94503.00;;;;8340336;28;20236;-68
2021/12/02 05:59:20;;;;;;;2.53;1.93;;;;;5.70;94492.00;;;;8336850;28;20685;-68
2021/12/02 06:03:23;;;;;;;2.23;2.03;;;;;5.80;94502.00;;;;8336295;28;20256;-68
2021/12/02 06:07:32;;;;;;;4.53;2.30;;;;;5.80;94502.00;;;;8352073;28;20228;-68
2021/12/02 06:11:37;;;;;;;5.37;2.20;;;;;5.90;94495.00;;;;8349302;28;20248;-68
2021/12/02 06:21:11;;;;;;;8.20;2.00;;;;;5.90;94506.00;;;;8362345;28;20247;-68
2021/12/02 06:25:48;;;;;;;6.20;2.10;;;;;6.00;94498.00;;;;8362073;28;20244;-68
2021/12/02 06:30:27;;;;;;;2.50;1.83;;;;;6.00;94493.00;;;;8363833;28;20220;-68
2021/12/02 06:34:58;;;;;;;5.73;2.43;;;;;6.00;94497.00;;;;8353891;28;20212;-68
2021/12/02 06:39:40;;;;;;;6.13;2.03;;;;;6.10;94493.00;;;;8360451;28;20224;-68
2021/12/02 06:44:16;;;;;;;4.87;1.90;;;;;6.10;94504.00;;;;8360473;28;20216;-68
2021/12/02 06:48:55;;;;;;;2.80;2.13;;;;;6.10;94503.00;;;;8361829;28;20225;-68
2021/12/02 06:53:28;;;;;;;4.57;2.13;;;;;6.10;94507.00;;;;8358685;28;20224;-68
2021/12/02 06:58:10;;;;;;;4.93;2.67;;;;;6.10;94510.00;;;;8362485;28;20605;-68
2021/12/02 07:02:15;;;;;;;6.20;2.63;;;;;6.10;94518.00;;;;8360560;28;20269;-68
2021/12/02 07:06:51;;;;;;;3.97;2.17;;;;;6.10;94511.00;;;;8360796;28;20250;-69
2021/12/02 07:11:25;;;;;;;2.10;1.90;;;;;6.10;94510.00;;;;8362036;28;20224;-69
2021/12/02 07:16:01;;;;;;;7.17;2.50;;;;;6.10;94513.00;;;;8360953;28;20224;-68
2021/12/02 07:20:38;;;;;;;3.47;1.90;;;;;6.10;94522.00;;;;8360739;28;20680;-69
2021/12/02 07:25:11;;;;;;;3.07;2.07;;;;;6.10;94527.00;;;;8360960;28;20222;-69
2021/12/02 07:29:50;;;;;;;2.70;2.00;;;;;6.10;94529.00;;;;8361127;28;20217;-69
2021/12/02 07:34:24;;;;;;;2.97;1.80;;;;;6.10;94528.00;;;;8359848;28;20252;-69
2021/12/02 07:39:01;;;;;;;5.30;1.87;;;;;6.20;94524.00;;;;8361686;28;20217;-69
2021/12/02 07:43:39;;;;;;;4.50;2.37;;;;;6.20;94530.00;;;;8357100;28;20426;-69
2021/12/02 07:47:44;;;;;;;2.70;1.60;;;;;6.20;94535.00;;;;8360080;28;20216;-69
2021/12/02 07:51:51;;;;;;;1.93;1.63;;;;;6.20;94541.00;;;;8360905;28;20251;-69
2021/12/02 07:56:25;;;;;;;4.27;2.00;;;;;6.10;94537.00;;;;8360281;28;20593;-69
2021/12/02 08:01:03;;;;;;;4.50;1.83;;;;;6.10;94528.00;;;;8358925;28;20604;-69
2021/12/02 08:05:39;;;;;;;2.53;1.87;;;;;6.10;94541.00;;;;8361205;28;20236;-69
2021/12/02 08:10:15;;;;;;;4.53;1.70;;;;;6.40;94552.00;;;;8366598;28;20224;-69
2021/12/02 08:14:50;;;;;;;5.97;1.80;;;;;6.70;94547.00;;;;8366624;28;20220;-69
2021/12/02 08:19:24;;;;;;;2.93;1.83;;;;;7.00;94534.00;;;;8366723;28;20228;-70
2021/12/02 08:24:02;;;;;;;1.47;1.37;;;;;7.00;94538.00;;;;8366228;28;20224;-69
2021/12/02 08:28:36;;;;;;;2.57;1.40;;;;;6.90;94546.00;;;;8366718;28;20607;-69
2021/12/02 08:33:14;;;;;;;6.63;1.80;;;;;6.90;94556.00;;;;8365539;28;20224;-69
2021/12/02 08:37:50;;;;;;;10.37;2.00;;;;;6.80;94551.00;;;;8366032;28;20303;-69
2021/12/02 08:42:32;;;;;;;4.63;1.60;;;;;6.80;94551.00;;;;8365303;28;20252;-69
2021/12/02 08:47:01;;;;;;;3.27;1.40;;;;;6.80;94552.00;;;;8366475;28;20228;-69
2021/12/02 08:51:38;;;;;;;2.13;1.80;;;;;6.80;94554.00;;;;8365645;28;20223;-69
2021/12/02 08:55:42;;;;;;;1.70;1.60;;;;;6.90;94560.00;;;;8365856;28;20676;-69
2021/12/02 08:59:49;;;;;;;3.37;1.97;;;;;7.00;94558.00;;;;8365431;28;20526;-69
2021/12/02 09:04:23;;;;;;;2.17;1.77;;;;;7.00;94559.00;;;;8364617;28;20240;-70
2021/12/02 09:09:00;;;;;;;1.70;1.60;;;;;6.90;94555.00;;;;8363768;28;20220;-69
2021/12/02 09:13:37;;;;;;;2.33;2.07;;;;;6.80;94558.00;;;;8364472;28;20304;-69
2021/12/02 09:17:42;;;;;;;4.73;2.67;;;;;6.80;94555.00;;;;8363485;28;20232;-69
2021/12/02 09:22:16;;;;;;;4.80;2.40;;;;;6.90;94552.00;;;;8364124;28;20227;-70
2021/12/02 09:26:51;;;;;;;2.70;2.50;;;;;6.90;94552.00;;;;8364634;28;20251;-69
2021/12/02 09:31:28;;;;;;;3.07;2.00;;;;;7.00;94554.00;;;;8363869;28;20247;-69
2021/12/02 09:36:07;;;;;;;6.23;2.00;;;;;7.20;94558.00;;;;8364531;28;20363;-70
2021/12/02 09:40:37;;;;;;;7.70;3.20;;;;;7.40;94542.00;;;;8364896;28;20221;-70
2021/12/02 09:45:12;;;;;;;3.20;2.47;;;;;7.50;94547.00;;;;8363588;28;20641;-70
2021/12/02 09:49:49;;;;;;;1.80;1.70;;;;;7.60;94557.00;;;;8362762;28;20228;-69
2021/12/02 09:54:30;;;;;;;4.30;1.50;;;;;7.90;94555.00;;;;8364136;28;20232;-69
2021/12/02 09:59:05;;;;;;;7.60;1.70;;;;;8.00;94543.00;;;;8363439;28;20220;-69
2021/12/02 10:03:41;;;;;;;3.30;1.77;;;;;7.90;94558.00;;;;8362754;28;20235;-69
2021/12/02 10:07:53;;;;;;;2.70;1.40;;;;;7.70;94537.00;;;;8363855;28;20227;-69
2021/12/02 10:12:11;;;;;;;5.37;1.70;;;;;7.50;94539.00;;;;8363112;28;20221;-69
2021/12/02 10:16:21;;;;;;;1.63;1.40;;;;;7.50;94535.00;;;;8362166;28;20239;-69
2021/12/02 10:20:29;;;;;;;1.70;1.47;;;;;7.40;94534.00;;;;8361424;28;20255;-69
2021/12/02 10:25:00;;;;;;;1.50;1.30;;;;;7.40;94521.00;;;;8359972;28;20289;-69
2021/12/02 10:29:36;;;;;;;2.17;1.30;;;;;7.40;94514.00;;;;8361079;28;20251;-69
2021/12/02 10:34:16;;;;;;;2.10;1.53;;;;;7.60;94514.00;;;;8360624;28;20212;-69
2021/12/02 10:38:50;;;;;;;2.13;1.50;;;;;7.80;94503.00;;;;8360656;28;20238;-69
2021/12/02 10:43:27;;;;;;;1.97;1.83;;;;;8.10;94495.00;;;;8361424;28;20570;-69
2021/12/02 10:47:31;;;;;;;2.97;1.57;;;;;8.30;94493.00;;;;8359785;28;20239;-69
2021/12/02 10:52:10;;;;;;;2.53;1.90;;;;;8.40;94481.00;;;;8360146;28;20223;-69
2021/12/02 10:56:40;;;;;;;1.80;1.70;;;;;8.50;94486.00;;;;8360460;28;20212;-70
2021/12/02 11:01:32;;;;;;;1.53;1.43;;;;;8.50;94483.00;;;;8360886;28;20258;-79
2021/12/02 11:05:54;;;;;;;3.60;1.50;;;;;8.40;94475.00;;;;8358631;28;20224;-79
2021/12/02 11:10:30;;;;;;;2.63;1.80;;;;;8.30;94481.00;;;;8360773;28;20562;-78
2021/12/02 11:15:10;;;;;;;2.10;2.00;;;;;8.20;94472.00;;;;8359159;28;20235;-78
2021/12/02 11:19:49;;;;;;;4.47;2.17;;;;;8.00;94472.00;;;;8313969;28;1337860;-78
2021/12/02 11:24:31;;;;;;;1.83;1.73;;;;;7.80;94478.00;;;;8361169;28;20228;-78
2021/12/02 11:28:58;;;;;;;5.07;1.60;;;;;7.90;94472.00;;;;8360968;28;20221;-81
2021/12/02 11:33:38;;;;;;;1.30;1.30;;;;;8.10;94480.00;;;;8359507;28;20239;-80
2021/12/02 11:38:15;;;;;;;2.77;1.60;;;;;8.30;94472.00;;;;8360968;28;20227;-69
2021/12/02 11:42:46;;;;;;;1.77;1.67;;;;;8.60;94465.00;;;;8358408;28;20224;-69
2021/12/02 11:47:23;;;;;;;11.87;5.80;;;;;8.80;94471.00;;;;8359895;28;20231;-69
2021/12/02 11:52:02;;;;;;;316.37;119.80;;;;;8.90;94470.00;;;;8360972;28;20244;-69
2021/12/02 11:56:35;;;;;;;55.30;35.40;;;;;8.90;94463.00;;;;8360553;28;20236;-69
2021/12/02 12:01:14;;;;;;;24.10;21.38;;;;;8.70;94464.00;;;;8359745;28;20216;-69
2021/12/02 12:05:55;;;;;;;2.40;2.20;;;;;8.60;94469.00;;;;8360641;28;20266;-69
2021/12/02 12:10:30;;;;;;;1.70;1.60;;;;;8.20;94503.00;;;;8360620;28;20227;-70
2021/12/02 12:15:04;;;;;;;1.03;1.00;;;;;7.10;94498.00;;;;8358697;28;20224;-69
2021/12/02 12:19:42;;;;;;;0.90;0.90;;;;;6.30;94502.00;;;;8359588;28;20223;-70
2021/12/02 12:23:56;;;;;;;0.87;0.87;;;;;5.50;94498.00;;;;8360272;28;20208;-72
2021/12/02 12:28:22;;;;;;;1.10;1.10;;;;;5.10;94493.00;;;;8359609;28;20223;-72
2021/12/02 12:33:01;;;;;;;76.43;19.90;;;;;4.90;94510.00;;;;8359779;28;20269;-72
2021/12/02 12:37:46;;;;;;;4.17;1.67;;;;;4.80;94509.00;;;;8357824;28;20228;-72
2021/12/02 12:42:25;;;;;;;2.63;1.60;;;;;4.60;94517.00;;;;8358407;28;20217;-73
2021/12/02 12:46:32;;;;;;;0.97;0.97;;;;;4.50;94508.00;;;;8249002;28;20644;-74
2021/12/02 12:51:10;;;;;;;0.90;0.90;;;;;4.30;94495.00;;;;8256887;28;20234;-76
2021/12/02 12:56:00;;;;;;;1.00;1.00;;;;;4.40;94499.00;;;;8262008;28;20228;-76
2021/12/02 13:00:35;;;;;;;2.00;1.30;;;;;4.40;94495.00;;;;8263887;28;20624;-76
2021/12/02 13:10:11;;;;;;;1.30;1.10;;;;;4.60;94499.00;;;;8364346;28;20276;-74
2021/12/02 13:14:30;;;;;;;1.00;1.00;;;;;4.70;94504.00;;;;8365488;28;20221;-73
2021/12/02 13:24:05;;;;;;;1.00;1.00;;;;;4.50;94514.00;;;;8364930;28;20549;-73
2021/12/02 13:28:15;;;;;;;0.80;0.80;;;;;4.60;94532.00;;;;8364611;28;20220;-72
2021/12/02 13:32:18;;;;;;;1.00;1.00;;;;;4.70;94530.00;;;;8364626;28;20660;-72
2021/12/02 13:36:57;;;;;;;0.80;0.80;;;;;4.70;94525.00;;;;8363831;28;20299;-72
2021/12/02 13:41:36;;;;;;;2.00;1.40;;;;;4.70;94539.00;;;;8364428;28;20561;-72
2021/12/02 13:46:13;;;;;;;1.73;1.40;;;;;4.60;94541.00;;;;8364050;28;20232;-72
2021/12/02 13:50:19;;;;;;;1.23;1.13;;;;;4.60;94546.00;;;;8360002;28;20231;-72
2021/12/02 13:54:55;;;;;;;1.63;1.47;;;;;4.60;94551.00;;;;8364240;28;20224;-72
2021/12/02 13:59:38;;;;;;;1.00;1.00;;;;;4.40;94553.00;;;;8363720;28;20220;-75
2021/12/02 14:04:09;;;;;;;1.30;1.20;;;;;4.00;94547.00;;;;8358642;28;20689;-83
2021/12/02 14:08:42;;;;;;;1.10;1.00;;;;;3.60;94546.00;;;;8364356;28;20606;-86
2021/12/02 14:13:20;;;;;;;0.70;0.70;;;;;3.50;94554.00;;;;8362327;28;20221;-75
2021/12/02 14:17:24;;;;;;;0.60;0.60;;;;;3.50;94564.00;;;;8362672;28;20304;-72
2021/12/02 14:21:28;;;;;;;11.53;4.67;;;;;3.60;94551.00;;;;8363660;28;20227;-72
2021/12/02 14:26:08;;;;;;;3.17;1.23;;;;;3.70;94547.00;;;;8359419;28;20224;-72
2021/12/02 14:30:43;;;;;;;0.90;0.90;;;;;3.80;94544.00;;;;8362464;28;20319;-72
2021/12/02 14:35:17;;;;;;;0.60;0.60;;;;;3.80;94538.00;;;;8363239;28;20251;-72
2021/12/02 14:39:23;;;;;;;23.20;9.70;;;;;3.80;94537.00;;;;8362853;28;20224;-72
2021/12/02 14:43:57;;;;;;;1.03;1.03;;;;;3.80;94542.00;;;;8361669;28;20310;-70
2021/12/02 14:48:00;;;;;;;7.53;4.03;;;;;3.80;94560.00;;;;8362819;28;20228;-70
2021/12/02 14:52:08;;;;;;;1.60;1.50;;;;;3.80;94565.00;;;;8362018;28;20230;-70
2021/12/02 14:56:41;;;;;;;1.87;1.77;;;;;3.80;94578.00;;;;8362517;28;20231;-70
2021/12/02 15:00:44;;;;;;;1.60;1.50;;;;;3.80;94602.00;;;;8362086;28;20247;-70
2021/12/02 15:04:51;;;;;;;1.90;1.50;;;;;3.80;94596.00;;;;8361073;28;20312;-69
2021/12/02 15:09:29;;;;;;;3.10;1.77;;;;;3.70;94603.00;;;;8361199;28;20230;-69
2021/12/02 15:18:31;;;;;;;1.30;1.30;;;;;3.50;94630.00;;;;8360454;28;20219;-71
2021/12/02 15:23:06;;;;;;;1.60;1.50;;;;;3.50;94628.00;;;;8361003;28;20238;-71
2021/12/02 15:27:11;;;;;;;1.87;1.60;;;;;3.40;94636.00;;;;8360939;28;20306;-71
2021/12/02 15:31:17;;;;;;;1.87;1.77;;;;;3.30;94649.00;;;;8360974;28;20226;-72
2021/12/02 15:35:53;;;;;;;4.20;2.23;;;;;3.30;94664.00;;;;8360679;28;20216;-69
2021/12/02 15:39:57;;;;;;;3.80;2.40;;;;;3.30;94661.00;;;;8361942;28;20227;-69
2021/12/02 15:44:05;;;;;;;3.73;2.63;;;;;3.40;94675.00;;;;8360589;28;20219;-69
2021/12/02 15:48:39;;;;;;;3.27;2.23;;;;;3.50;94678.00;;;;8360543;28;20230;-69
2021/12/02 15:53:16;;;;;;;2.80;2.03;;;;;3.60;94685.00;;;;8361271;28;20224;-70
2021/12/02 15:57:50;;;;;;;9.40;2.67;;;;;3.80;94688.00;;;;8360997;28;20254;-70
2021/12/02 16:02:30;;;;;;;7.03;2.27;;;;;3.80;94679.00;;;;8359789;28;20228;-70
2021/12/02 16:07:06;;;;;;;2.87;2.20;;;;;3.80;94693.00;;;;8360303;28;20219;-69
2021/12/02 16:11:45;;;;;;;2.27;1.87;;;;;3.80;94692.00;;;;8360568;28;20314;-69
2021/12/02 16:15:48;;;;;;;1.97;1.87;;;;;3.80;94700.00;;;;8360061;28;20225;-69
2021/12/02 16:19:51;;;;;;;4.03;2.10;;;;;3.80;94708.00;;;;8360039;28;20217;-69
2021/12/02 16:24:25;;;;;;;2.50;2.17;;;;;3.70;94708.00;;;;8360883;28;20247;-69
2021/12/02 16:29:03;;;;;;;5.03;2.20;;;;;3.60;94712.00;;;;8361600;28;20330;-69
2021/12/02 16:33:38;;;;;;;3.70;2.57;;;;;3.70;94711.00;;;;8366369;28;20218;-69
2021/12/02 16:38:15;;;;;;;3.00;2.70;;;;;3.70;94714.00;;;;8367529;28;20281;-68
2021/12/02 16:42:18;;;;;;;3.33;1.87;;;;;3.70;94732.00;;;;8366294;28;20215;-68
2021/12/02 16:46:55;;;;;;;2.70;2.07;;;;;3.60;94737.00;;;;8365434;28;20688;-68
2021/12/02 16:51:35;;;;;;;1.63;1.53;;;;;3.50;94746.00;;;;8356563;28;20233;-69
2021/12/02 16:56:06;;;;;;;2.37;1.77;;;;;3.40;94753.00;;;;8364878;28;20223;-69
2021/12/02 17:00:43;;;;;;;2.87;2.23;;;;;3.20;94751.00;;;;8363624;28;20226;-68
2021/12/02 17:05:19;;;;;;;3.07;2.27;;;;;3.10;94756.00;;;;8362952;28;20284;-69
2021/12/02 17:09:23;;;;;;;2.63;2.23;;;;;2.90;94770.00;;;;8363746;28;20224;-68
2021/12/02 17:13:58;;;;;;;3.07;2.23;;;;;2.80;94775.00;;;;8364574;28;20219;-68
2021/12/02 17:23:27;;;;;;;5.67;3.97;;;;;2.80;94787.00;;;;8361974;28;20679;-68
2021/12/02 17:28:04;;;;;;;6.37;2.63;;;;;2.80;94795.00;;;;8363860;28;20246;-68
2021/12/02 17:32:42;;;;;;;3.93;2.07;;;;;2.70;94801.00;;;;8365362;28;20218;-68
2021/12/02 17:37:16;;;;;;;2.10;1.90;;;;;2.60;94817.00;;;;8363720;28;20215;-67
2021/12/02 17:41:54;;;;;;;2.23;2.00;;;;;2.50;94829.00;;;;8364296;28;20660;-67
2021/12/02 17:46:29;;;;;;;3.10;2.43;;;;;2.50;94840.00;;;;8363932;28;20229;-67
2021/12/02 17:51:05;;;;;;;3.10;2.13;;;;;2.40;94839.00;;;;8363035;28;20271;-68
2021/12/02 17:55:39;;;;;;;1.97;1.77;;;;;2.40;94845.00;;;;8362785;28;20225;-67
2021/12/02 18:00:15;;;;;;;2.47;2.20;;;;;2.40;94850.00;;;;8363878;28;20219;-67
2021/12/02 18:04:53;;;;;;;4.40;2.07;;;;;2.50;94858.00;;;;8362749;28;20245;-68
2021/12/02 18:09:28;;;;;;;5.43;3.60;;;;;2.50;94867.00;;;;8363422;28;20232;-67
2021/12/02 18:14:06;;;;;;;6.37;3.37;;;;;2.50;94857.00;;;;8362756;28;20658;-67
2021/12/02 18:23:32;;;;;;;6.33;2.43;;;;;2.50;94869.00;;;;8362556;28;20333;-67
2021/12/02 18:28:09;;;;;;;8.63;7.37;;;;;2.50;94880.00;;;;8363084;28;20243;-66
2021/12/02 18:32:49;;;;;;;8.23;3.07;;;;;2.60;94897.00;;;;8362093;28;20213;-67
2021/12/02 18:37:22;;;;;;;3.17;2.40;;;;;2.70;94907.00;;;;8361383;28;20255;-67
2021/12/02 18:41:55;;;;;;;2.93;2.70;;;;;2.70;94929.00;;;;8362984;28;20236;-67
2021/12/02 18:46:34;;;;;;;3.57;2.40;;;;;2.80;94951.00;;;;8359616;28;20231;-67
2021/12/02 18:51:08;;;;;;;2.43;2.13;;;;;2.70;94961.00;;;;8361373;28;20218;-66
2021/12/02 18:55:47;;;;;;;3.27;2.50;;;;;2.70;94962.00;;;;8362169;28;20228;-66
2021/12/02 19:00:23;;;;;;;5.97;3.00;;;;;2.70;94971.00;;;;8362381;28;20226;-66
2021/12/02 19:05:06;;;;;;;8.13;3.07;;;;;2.70;94972.00;;;;8361080;28;20230;-66
2021/12/02 19:29:14;;;;;;;5.17;3.43;;;;;2.40;94997.00;;;;8360481;28;20280;-66
2021/12/02 19:33:51;;;;;;;5.40;2.90;;;;;2.40;94993.00;;;;8360705;28;20249;-67
2021/12/02 19:38:25;;;;;;;3.40;2.37;;;;;2.40;95005.00;;;;8360982;28;20316;-67
2021/12/02 19:43:04;;;;;;;4.57;2.30;;;;;2.40;95009.00;;;;8360911;28;20226;-67
2021/12/02 19:47:39;;;;;;;4.83;2.63;;;;;2.30;95014.00;;;;8360707;28;20225;-67
2021/12/02 19:52:16;;;;;;;2.47;2.27;;;;;2.40;95024.00;;;;8359749;28;20545;-67
2021/12/02 19:56:53;;;;;;;9.37;4.63;;;;;2.40;95035.00;;;;8361154;28;20223;-67
2021/12/02 20:01:31;;;;;;;6.37;4.23;;;;;2.40;95041.00;;;;8360641;28;20623;-68
2021/12/02 20:06:06;;;;;;;2.13;2.00;;;;;2.50;95042.00;;;;8359515;28;20596;-67
2021/12/02 20:10:46;;;;;;;3.27;2.97;;;;;2.60;95050.00;;;;8359078;28;20592;-67
2021/12/02 20:15:19;;;;;;;2.53;2.33;;;;;2.60;95058.00;;;;8360213;28;20218;-68
2021/12/02 20:20:00;;;;;;;3.63;2.77;;;;;2.60;95080.00;;;;8359053;28;20230;-67
2021/12/02 20:24:28;;;;;;;1.63;1.53;;;;;2.70;95080.00;;;;8360052;28;20229;-67
2021/12/02 20:29:05;;;;;;;1.67;1.57;;;;;2.80;95090.00;;;;8360983;28;20226;-67
2021/12/02 20:33:08;;;;;;;4.83;2.70;;;;;2.80;95095.00;;;;8359289;28;20230;-67
2021/12/02 20:37:48;;;;;;;2.20;1.87;;;;;2.80;95098.00;;;;8356119;28;20610;-68
2021/12/02 20:41:52;;;;;;;2.07;1.97;;;;;2.70;95103.00;;;;8361026;28;20229;-67
2021/12/02 20:46:29;;;;;;;4.30;2.60;;;;;2.70;95110.00;;;;8359767;28;20660;-67
2021/12/02 20:50:32;;;;;;;1.37;1.27;;;;;2.70;95122.00;;;;8360154;28;20696;-67
2021/12/02 20:55:06;;;;;;;4.63;2.07;;;;;2.80;95130.00;;;;8360598;28;20247;-67
2021/12/02 20:59:44;;;;;;;2.67;2.47;;;;;2.80;95131.00;;;;8359780;28;20234;-67
2021/12/02 21:04:21;;;;;;;3.27;2.60;;;;;2.80;95144.00;;;;8359488;28;20233;-66
2021/12/02 21:09:00;;;;;;;6.47;2.40;;;;;2.90;95144.00;;;;8360282;28;20255;-67
2021/12/02 21:13:04;;;;;;;3.10;2.40;;;;;2.90;95153.00;;;;8359984;28;20619;-66
2021/12/02 21:17:40;;;;;;;3.60;2.90;;;;;2.90;95156.00;;;;8366437;28;20309;-67
2021/12/02 21:22:15;;;;;;;4.67;2.00;;;;;2.80;95165.00;;;;8365487;28;20222;-66
2021/12/02 21:26:18;;;;;;;2.07;1.53;;;;;2.90;95167.00;;;;8365287;28;20211;-67
2021/12/02 21:30:22;;;;;;;4.57;2.43;;;;;2.90;95172.00;;;;8365728;28;20239;-67
2021/12/02 21:34:32;;;;;;;2.87;2.40;;;;;3.00;95185.00;;;;8364675;28;20653;-67
2021/12/02 21:38:40;;;;;;;2.50;2.27;;;;;3.00;95184.00;;;;8365123;28;20231;-67
2021/12/02 21:42:44;;;;;;;3.43;2.50;;;;;3.00;95204.00;;;;8365374;28;20218;-67
2021/12/02 21:46:48;;;;;;;2.87;2.57;;;;;3.00;95210.00;;;;8364655;28;20230;-67
2021/12/02 21:51:24;;;;;;;3.10;1.90;;;;;3.00;95215.00;;;;8364985;28;20268;-67
2021/12/02 21:55:59;;;;;;;6.63;2.70;;;;;3.00;95224.00;;;;8364321;28;20228;-67
2021/12/02 22:00:06;;;;;;;3.77;2.73;;;;;3.10;95231.00;;;;8364055;28;20334;-66
2021/12/02 22:04:13;;;;;;;7.10;3.10;;;;;3.00;95240.00;;;;8364321;28;20232;-66
2021/12/02 22:08:46;;;;;;;3.60;2.40;;;;;3.10;95252.00;;;;8364773;28;20215;-66
2021/12/02 22:12:49;;;;;;;3.73;2.37;;;;;3.00;95247.00;;;;8364024;28;20239;-66
2021/12/02 22:17:26;;;;;;;1.67;1.57;;;;;3.00;95269.00;;;;8364173;28;20250;-66
2021/12/02 22:22:03;;;;;;;2.33;2.17;;;;;2.90;95274.00;;;;8362753;28;20219;-66
2021/12/02 22:26:08;;;;;;;3.43;2.17;;;;;2.90;95276.00;;;;8362491;28;20227;-66
2021/12/02 22:30:41;;;;;;;2.50;2.30;;;;;2.80;95279.00;;;;8364025;28;20230;-66
2021/12/02 22:34:46;;;;;;;2.20;2.10;;;;;2.70;95284.00;;;;8363435;28;20711;-67
2021/12/02 22:39:23;;;;;;;2.83;1.87;;;;;2.70;95287.00;;;;8362687;28;20252;-66
2021/12/02 22:43:28;;;;;;;2.77;2.57;;;;;2.70;95299.00;;;;8363955;28;20249;-66
2021/12/02 22:48:03;;;;;;;2.90;2.30;;;;;2.70;95292.00;;;;8362607;28;20253;-67
2021/12/02 22:52:07;;;;;;;3.53;2.80;;;;;2.70;95296.00;;;;8362455;28;20258;-67
2021/12/02 22:56:44;;;;;;;2.03;1.93;;;;;2.70;95304.00;;;;8363506;28;20640;-67
2021/12/02 23:00:52;;;;;;;4.10;2.73;;;;;2.70;95299.00;;;;8362300;28;20242;-67
2021/12/02 23:04:56;;;;;;;2.80;2.27;;;;;2.70;95309.00;;;;8362056;28;20226;-67